map of SMS home
SMS - Airport
Location
City:  Sainte Marie, Madagascar
ICAO:FMMS
IATA:SMS

Details
Type:Airport (Aerodrome, Airfield)
Latitude:1705'38"S (-17.093888)
Longitude:4948'57"E (49.815834)
Datum:other
Elevation:7 ft (2 m)
Variation:13.82W (WMM2015v2 magnetic declination)
-0.04 annual change
Runways:1
Longest:3451 × 98 ft (1052 × 30 m), paved

Time
Time Zone:UTC+3
Local Time:

Weather
METAR:FMMS 041200Z 20010KT 8000 -RA BKN017 OVC040 25/24 Q1011
TAF:FMMS 041100Z 0412/0512 14012KT 9999 SCT017CB BKN040 PROB40
TEMPO 0412/0420 4000 TSRA
BECMG 0418/0421 22008KT SCT017 BKN033
TEMPO 0420/0512 4000 SHRA

Related Locations
Nearby:
Farthest:MMCD: 11224 mi / 18063 km
Cedros [Isla de Cedros Airport], Isla de Cedros, BCN, MX

Find:

   beyond  
but within

Other Information
Maps:
NOTAMs:
Links:
Sources:

  
  • flag of Madagascar
  

Sectional Chart

Flight Planning
at skyvector.com

Satellite Image

Google Maps Satellite view

 

Copyright © 2004-2019 Karl L. Swartz. All rights reserved.
The Great Circle Mapper name and logo are trademarks of the Great Circle Mapper.
All other trademarks mentioned herein belong to their respective owners.
Please see credits for attibutions and further copyright information.

  Follow gcmap on Facebook Follow gcmap on Twitter GCmap on LinkedIn

hCard Microformat

Geo Microformat